createdAt,value
2018-12-09T00:01:46.443Z,53.80
2018-12-09T00:04:16.943Z,52.93
2018-12-09T00:06:47.465Z,52.57
2018-12-09T00:09:18.446Z,52.44
2018-12-09T00:11:49.577Z,52.19
2018-12-09T00:14:20.260Z,52.46
2018-12-09T00:16:50.816Z,52.59
2018-12-09T00:19:22.623Z,52.03
2018-12-09T00:21:53.250Z,53.21
2018-12-09T00:24:23.987Z,54.41
2018-12-09T00:26:54.603Z,54.63
2018-12-09T00:29:26.483Z,54.88
2018-12-09T00:31:57.005Z,55.81
2018-12-09T00:34:27.250Z,54.55
2018-12-09T00:36:58.010Z,54.75
2018-12-09T00:39:29.178Z,54.59
2018-12-09T00:41:59.720Z,54.49
2018-12-09T00:44:30.851Z,53.90
2018-12-09T00:47:01.392Z,53.67
2018-12-09T00:49:33.205Z,54.73
2018-12-09T00:52:03.691Z,54.80
2018-12-09T00:54:35.009Z,54.28
2018-12-09T00:57:05.612Z,54.99
2018-12-09T00:59:36.411Z,53.85
2018-12-09T01:02:13.589Z,53.95
2018-12-09T01:04:44.063Z,53.63
2018-12-09T01:07:14.930Z,53.69
2018-12-09T01:09:45.686Z,53.78
2018-12-09T01:12:16.730Z,53.25
2018-12-09T01:14:47.620Z,53.07
2018-12-09T01:17:18.324Z,53.58
2018-12-09T01:19:49.837Z,55.03
2018-12-09T01:22:20.432Z,54.21
2018-12-09T01:24:51.271Z,53.15
2018-12-09T01:27:22.163Z,54.04
2018-12-09T01:29:53.702Z,54.11
2018-12-09T01:32:25.136Z,53.61
2018-12-09T01:34:55.411Z,53.64
2018-12-09T01:37:26.517Z,53.46
2018-12-09T01:39:58.958Z,52.68
2018-12-09T01:42:30.448Z,52.92
2018-12-09T01:45:01.060Z,52.47
2018-12-09T01:47:31.678Z,52.96
2018-12-09T01:50:02.756Z,52.74
2018-12-09T01:52:33.517Z,54.73
2018-12-09T01:55:04.597Z,54.73
2018-12-09T01:57:35.543Z,53.41
2018-12-09T02:00:06.872Z,53.47
2018-12-09T02:02:37.811Z,54.41
2018-12-09T02:05:08.536Z,56.29
2018-12-09T02:07:39.761Z,56.93
2018-12-09T02:10:11.388Z,57.38
2018-12-09T02:12:42.071Z,57.16
2018-12-09T02:15:12.903Z,56.82
2018-12-09T02:17:44.241Z,56.50
2018-12-09T02:20:15.290Z,56.04
2018-12-09T02:22:45.624Z,56.49
2018-12-09T02:25:16.043Z,57.16
2018-12-09T02:27:46.339Z,55.28
2018-12-09T02:30:17.372Z,55.86
2018-12-09T02:32:47.812Z,56.36
2018-12-09T02:35:18.258Z,57.40
2018-12-09T02:37:49.036Z,56.15
2018-12-09T02:40:19.312Z,55.53
2018-12-09T02:42:49.764Z,55.79
2018-12-09T02:45:20.470Z,56.50
2018-12-09T02:47:50.986Z,56.17
2018-12-09T02:50:21.911Z,55.62
2018-12-09T02:52:52.332Z,55.43
2018-12-09T02:55:22.773Z,55.41
2018-12-09T02:57:53.291Z,55.37
2018-12-09T03:00:23.772Z,55.73
2018-12-09T03:02:54.398Z,55.68
2018-12-09T03:05:24.674Z,55.16
2018-12-09T03:07:55.453Z,55.44
2018-12-09T03:10:27.315Z,55.17
2018-12-09T03:12:58.250Z,55.64
2018-12-09T03:15:28.888Z,54.81
2018-12-09T03:17:59.530Z,54.69
2018-12-09T03:20:30.593Z,54.10
2018-12-09T03:23:01.145Z,54.69
2018-12-09T03:25:31.706Z,54.82
2018-12-09T03:28:02.032Z,54.17
2018-12-09T03:30:34.080Z,55.14
2018-12-09T03:33:04.792Z,54.03
2018-12-09T03:35:35.570Z,54.16
2018-12-09T03:38:06.284Z,54.38
2018-12-09T03:40:37.166Z,54.41
2018-12-09T03:43:07.683Z,54.07
2018-12-09T03:45:38.717Z,54.21
2018-12-09T03:48:09.433Z,55.67
2018-12-09T03:50:41.203Z,56.24
2018-12-09T03:53:11.858Z,57.09
2018-12-09T03:55:42.585Z,56.53
2018-12-09T03:58:13.668Z,56.13
2018-12-09T04:00:44.752Z,55.18
2018-12-09T04:03:15.108Z,54.50
2018-12-09T04:05:45.460Z,54.67
2018-12-09T04:08:16.159Z,54.71
2018-12-09T04:10:46.555Z,54.95
2018-12-09T04:13:17.402Z,54.10
2018-12-09T04:15:48.192Z,54.49
2018-12-09T04:18:19.086Z,54.41
2018-12-09T04:20:49.825Z,55.09
2018-12-09T04:23:20.557Z,56.43
2018-12-09T04:25:51.677Z,58.22
2018-12-09T04:28:22.620Z,58.55
2018-12-09T04:30:53.435Z,58.53
2018-12-09T04:33:24.496Z,57.36
2018-12-09T04:35:55.273Z,57.89
2018-12-09T04:38:26.639Z,56.47
2018-12-09T04:40:58.400Z,55.91
2018-12-09T04:43:29.061Z,56.56
2018-12-09T04:46:00.368Z,55.62
2018-12-09T04:48:31.147Z,56.31
2018-12-09T04:51:03.068Z,57.31
2018-12-09T04:53:34.138Z,56.94
2018-12-09T04:56:04.840Z,57.87
2018-12-09T04:58:35.829Z,56.10
2018-12-09T05:01:06.349Z,56.16
2018-12-09T05:03:37.087Z,55.31
2018-12-09T05:06:08.227Z,54.27
2018-12-09T05:08:38.597Z,55.45
2018-12-09T05:11:10.672Z,55.81
2018-12-09T05:13:42.163Z,56.54
2018-12-09T05:16:13.348Z,55.35
2018-12-09T05:18:43.804Z,55.17
2018-12-09T05:21:14.894Z,54.64
2018-12-09T05:23:45.491Z,53.98
2018-12-09T05:26:16.205Z,53.58
2018-12-09T05:28:46.736Z,54.41
2018-12-09T05:31:18.217Z,55.84
2018-12-09T05:33:49.156Z,55.41
2018-12-09T05:36:20.190Z,55.08
2018-12-09T05:38:50.785Z,54.91
2018-12-09T05:41:21.865Z,54.85
2018-12-09T05:43:52.253Z,54.27
2018-12-09T05:46:23.523Z,56.37
2018-12-09T05:48:53.778Z,55.92
2018-12-09T05:51:26.065Z,55.60
2018-12-09T05:53:56.987Z,55.69
2018-12-09T05:56:27.738Z,55.57
2018-12-09T05:58:58.323Z,54.81
2018-12-09T06:01:31.412Z,55.66
2018-12-09T06:04:02.477Z,55.84
2018-12-09T06:06:33.115Z,55.49
2018-12-09T06:09:03.631Z,55.44
2018-12-09T06:11:34.965Z,56.17
2018-12-09T06:14:06.142Z,56.59
2018-12-09T06:16:36.413Z,56.98
2018-12-09T06:19:07.316Z,56.24
2018-12-09T06:21:38.574Z,56.21
2018-12-09T06:24:09.246Z,57.98
2018-12-09T06:26:39.787Z,57.86
2018-12-09T06:29:10.755Z,57.07
2018-12-09T06:31:41.871Z,55.50
2018-12-09T06:34:12.339Z,56.66
2018-12-09T06:36:42.661Z,55.44
2018-12-09T06:39:13.188Z,55.30
2018-12-09T06:41:43.461Z,55.93
2018-12-09T06:44:14.175Z,56.60
2018-12-09T06:46:44.655Z,56.99
2018-12-09T06:49:15.431Z,57.43
2018-12-09T06:51:46.388Z,56.12
2018-12-09T06:54:16.780Z,58.13
2018-12-09T06:56:47.345Z,57.18
2018-12-09T06:59:17.867Z,58.88
2018-12-09T07:01:49.418Z,58.07
2018-12-09T07:04:20.137Z,58.35
2018-12-09T07:06:51.375Z,59.22
2018-12-09T07:09:22.056Z,57.59
2018-12-09T07:11:53.157Z,58.77
2018-12-09T07:14:24.473Z,57.83
2018-12-09T07:16:55.652Z,56.80
2018-12-09T07:19:26.723Z,57.02
2018-12-09T07:21:57.927Z,56.74
2018-12-09T07:24:28.853Z,57.19
2018-12-09T07:26:59.606Z,56.50
2018-12-09T07:29:30.771Z,54.73
2018-12-09T07:32:02.298Z,55.22
2018-12-09T07:34:33.352Z,54.20
2018-12-09T07:37:04.392Z,53.99
2018-12-09T07:39:35.032Z,53.55
2018-12-09T07:42:06.574Z,52.86
2018-12-09T07:44:37.345Z,54.38
2018-12-09T07:47:08.071Z,53.43
2018-12-09T07:49:38.908Z,52.77
2018-12-09T07:52:10.939Z,52.99
2018-12-09T07:54:41.473Z,52.03
2018-12-09T07:57:11.876Z,53.07
2018-12-09T07:59:42.961Z,53.21
2018-12-09T08:02:14.006Z,52.31
2018-12-09T08:04:45.112Z,52.86
2018-12-09T08:07:15.806Z,53.29
2018-12-09T08:09:46.538Z,52.31
2018-12-09T08:12:18.269Z,51.90
2018-12-09T08:14:49.609Z,52.00
2018-12-09T08:17:20.218Z,51.66
2018-12-09T08:19:51.771Z,51.29
2018-12-09T08:22:22.853Z,48.98
2018-12-09T08:24:53.857Z,46.09
2018-12-09T08:27:24.592Z,44.23
2018-12-09T08:29:55.552Z,43.53
2018-12-09T08:32:26.375Z,41.67
2018-12-09T08:34:57.352Z,38.63
2018-12-09T08:37:27.855Z,37.96
2018-12-09T08:39:58.804Z,35.19
2018-12-09T08:42:30.589Z,33.72
2018-12-09T08:45:01.673Z,33.18
2018-12-09T08:47:32.381Z,32.96
2018-12-09T08:50:03.312Z,33.17
2018-12-09T08:52:34.037Z,32.78
2018-12-09T08:55:04.187Z,32.53
2018-12-09T08:57:34.124Z,32.74
2018-12-09T09:00:05.376Z,32.80
2018-12-09T09:02:36.460Z,31.74
2018-12-09T09:05:07.770Z,30.00
2018-12-09T09:07:39.283Z,30.44
2018-12-09T09:10:10.735Z,29.98
2018-12-09T09:12:42.592Z,28.64
2018-12-09T09:15:13.272Z,29.43
2018-12-09T09:17:43.846Z,29.40
2018-12-09T09:20:14.259Z,28.21
2018-12-09T09:22:45.474Z,29.23
2018-12-09T09:25:15.899Z,28.10
2018-12-09T09:27:46.269Z,27.97
2018-12-09T09:30:16.637Z,27.63
2018-12-09T09:32:46.991Z,27.39
2018-12-09T09:35:17.427Z,27.39
2018-12-09T09:37:48.192Z,30.43
2018-12-09T09:40:18.537Z,26.61
2018-12-09T09:42:49.082Z,26.31
2018-12-09T09:45:19.822Z,25.00
2018-12-09T09:47:50.413Z,26.01
2018-12-09T09:50:20.910Z,26.13
2018-12-09T09:52:52.182Z,24.19
2018-12-09T09:55:22.569Z,24.85
2018-12-09T09:57:52.751Z,24.93
2018-12-09T10:00:22.895Z,23.98
2018-12-09T10:02:53.923Z,24.01
2018-12-09T10:05:24.289Z,24.50
2018-12-09T10:07:54.646Z,23.43
2018-12-09T10:10:25.299Z,23.39
2018-12-09T10:12:55.756Z,23.55
2018-12-09T10:15:26.363Z,21.91
2018-12-09T10:17:57.370Z,22.08
2018-12-09T10:20:28.145Z,23.15
2018-12-09T10:22:59.081Z,22.69
2018-12-09T10:25:29.613Z,21.86
2018-12-09T10:27:59.959Z,22.23
2018-12-09T10:30:30.464Z,23.35
2018-12-09T10:33:02.341Z,23.75
2018-12-09T10:35:33.241Z,24.77
2018-12-09T10:38:03.822Z,25.16
2018-12-09T10:40:35.425Z,24.37
2018-12-09T10:43:06.223Z,22.69
2018-12-09T10:45:36.984Z,23.49
2018-12-09T10:48:07.871Z,23.04
2018-12-09T10:50:38.283Z,23.07
2018-12-09T10:53:10.178Z,23.08
2018-12-09T10:55:40.966Z,23.06
2018-12-09T10:58:12.023Z,24.05
2018-12-09T11:00:47.642Z,24.95
2018-12-09T11:03:20.168Z,25.43
2018-12-09T11:05:51.154Z,25.32
2018-12-09T11:08:22.791Z,25.22
2018-12-09T11:10:53.989Z,25.35
2018-12-09T11:13:25.659Z,24.13
2018-12-09T11:15:56.688Z,22.98
2018-12-09T11:18:27.569Z,23.25
2018-12-09T11:20:58.181Z,23.51
2018-12-09T11:23:29.391Z,22.66
2018-12-09T11:26:00.401Z,23.30
2018-12-09T11:28:31.091Z,23.48
2018-12-09T11:31:02.348Z,24.47
2018-12-09T11:33:33.895Z,23.84
2018-12-09T11:36:04.636Z,24.53
2018-12-09T11:38:35.364Z,23.95
2018-12-09T11:41:05.722Z,24.06
2018-12-09T11:43:37.263Z,23.79
2018-12-09T11:46:08.340Z,24.82
2018-12-09T11:48:39.384Z,25.09
2018-12-09T11:51:10.099Z,24.29
2018-12-09T11:53:42.193Z,24.09
2018-12-09T11:56:12.535Z,23.69
2018-12-09T11:58:43.536Z,23.66
2018-12-09T12:01:13.977Z,24.28
2018-12-09T12:03:45.164Z,25.28
2018-12-09T12:06:16.198Z,25.41
2018-12-09T12:08:47.197Z,24.60
2018-12-09T12:11:17.973Z,23.59
2018-12-09T12:13:49.244Z,24.49
2018-12-09T12:16:20.455Z,24.67
2018-12-09T12:18:50.902Z,24.12
2018-12-09T12:21:21.296Z,23.57
2018-12-09T12:23:52.668Z,24.43
2018-12-09T12:26:23.685Z,24.21
2018-12-09T12:28:54.152Z,22.90
2018-12-09T12:31:24.554Z,24.33
2018-12-09T12:33:55.502Z,23.82
2018-12-09T12:36:25.895Z,23.30
2018-12-09T12:38:56.532Z,23.45
2018-12-09T12:41:27.187Z,22.84
2018-12-09T12:43:58.250Z,22.95
2018-12-09T12:46:28.664Z,23.83
2018-12-09T12:48:59.298Z,24.58
2018-12-09T12:51:30.256Z,24.74
2018-12-09T12:54:02.012Z,24.68
2018-12-09T12:56:32.482Z,24.00
2018-12-09T12:59:02.933Z,25.00
2018-12-09T13:01:33.788Z,31.04
2018-12-09T13:04:05.461Z,24.53
2018-12-09T13:06:36.201Z,25.11
2018-12-09T13:09:08.510Z,25.04
2018-12-09T13:11:39.284Z,23.67
2018-12-09T13:14:10.081Z,24.35
2018-12-09T13:16:41.192Z,24.45
2018-12-09T13:19:11.692Z,23.97
2018-12-09T13:21:42.039Z,25.11
2018-12-09T13:24:13.467Z,25.54
2018-12-09T13:26:44.077Z,24.95
2018-12-09T13:29:14.800Z,24.39
2018-12-09T13:36:39.440Z,27.91
2018-12-09T13:39:09.935Z,29.48
2018-12-09T13:41:40.613Z,30.03
2018-12-09T13:44:11.101Z,28.34
2018-12-09T13:46:41.546Z,29.27
2018-12-09T13:49:12.405Z,31.29
2018-12-09T13:51:42.942Z,33.33
2018-12-09T13:54:14.464Z,34.00
2018-12-09T13:56:45.066Z,35.44
2018-12-09T13:59:15.515Z,37.18
2018-12-09T14:01:46.043Z,37.47
2018-12-09T14:04:17.522Z,38.08
2018-12-09T14:06:48.253Z,38.36
2018-12-09T14:09:18.861Z,38.54
2018-12-09T14:11:49.212Z,39.26
2018-12-09T14:14:20.208Z,40.56
2018-12-09T14:16:51.443Z,43.16
2018-12-09T14:19:21.896Z,45.36
2018-12-09T14:21:52.539Z,44.96
2018-12-09T14:24:22.856Z,43.85
2018-12-09T14:26:53.373Z,41.88
2018-12-09T14:29:24.328Z,40.51
2018-12-09T14:31:55.391Z,41.24
2018-12-09T14:34:26.591Z,43.10
2018-12-09T14:36:57.284Z,46.19
2018-12-09T14:39:28.051Z,47.42
2018-12-09T14:41:58.855Z,47.13
2018-12-09T14:44:30.059Z,48.18
2018-12-09T14:47:00.456Z,44.55
2018-12-09T14:49:31.219Z,43.37
2018-12-09T14:52:01.800Z,43.19
2018-12-09T14:54:32.697Z,42.85
2018-12-09T14:57:03.271Z,42.48
2018-12-09T14:59:33.767Z,42.89
2018-12-09T15:02:04.363Z,42.79
2018-12-09T15:04:35.551Z,43.42
2018-12-09T15:07:05.936Z,44.49
2018-12-09T15:09:36.858Z,43.29
2018-12-09T15:12:08.156Z,43.01
2018-12-09T15:14:39.672Z,43.22
2018-12-09T15:17:11.002Z,44.37
2018-12-09T15:19:41.338Z,44.97
2018-12-09T15:22:11.705Z,46.07
2018-12-09T15:24:43.315Z,45.33
2018-12-09T15:27:13.847Z,45.79
2018-12-09T15:29:44.467Z,45.90
2018-12-09T15:32:15.237Z,47.12
2018-12-09T15:34:47.195Z,49.27
2018-12-09T15:37:18.007Z,49.06
2018-12-09T15:39:48.738Z,49.39
2018-12-09T15:42:19.360Z,48.78
2018-12-09T15:44:51.110Z,48.47
2018-12-09T15:47:21.562Z,48.13
2018-12-09T15:49:52.274Z,51.30
2018-12-09T15:52:22.908Z,52.21
2018-12-09T15:54:53.559Z,48.79
2018-12-09T15:57:24.147Z,49.28
2018-12-09T15:59:54.599Z,49.45
2018-12-09T16:02:25.320Z,48.80
2018-12-09T16:04:57.434Z,48.42
2018-12-09T16:07:28.042Z,52.34
2018-12-09T16:09:58.647Z,53.12
2018-12-09T16:12:29.277Z,52.09
2018-12-09T16:15:00.669Z,50.63
2018-12-09T16:17:32.279Z,50.91
2018-12-09T16:20:02.782Z,52.84
2018-12-09T16:22:33.315Z,51.71
2018-12-09T16:25:04.010Z,50.51
2018-12-09T16:27:34.483Z,50.80
2018-12-09T16:30:05.196Z,50.01
2018-12-09T16:32:35.554Z,49.66
2018-12-09T16:35:06.503Z,49.67
2018-12-09T16:37:36.952Z,49.59
2018-12-09T16:40:07.680Z,53.80
2018-12-09T16:42:38.064Z,55.19
2018-12-09T16:45:09.466Z,52.51
2018-12-09T16:47:40.364Z,53.64
2018-12-09T16:50:10.975Z,52.98
2018-12-09T16:52:41.380Z,52.83
2018-12-09T16:55:12.767Z,51.18
2018-12-09T16:57:43.240Z,50.17
2018-12-09T17:00:13.612Z,50.21
2018-12-09T17:02:44.467Z,50.56
2018-12-09T17:05:15.008Z,50.37
2018-12-09T17:07:45.421Z,53.88
2018-12-09T17:10:16.315Z,53.83
2018-12-09T17:12:46.919Z,53.65
2018-12-09T17:15:17.901Z,53.74
2018-12-09T17:17:48.641Z,51.74
2018-12-09T17:20:18.797Z,53.54
2018-12-09T17:22:49.315Z,55.15
2018-12-09T17:25:20.202Z,56.72
2018-12-09T17:27:50.463Z,56.65
2018-12-09T17:30:21.107Z,54.31
2018-12-09T17:32:51.508Z,53.02
2018-12-09T17:35:22.076Z,52.07
2018-12-09T17:37:52.594Z,52.14
2018-12-09T17:40:23.261Z,52.16
2018-12-09T17:42:54.081Z,51.78
2018-12-09T17:45:25.030Z,52.02
2018-12-09T17:47:55.519Z,51.88
2018-12-09T17:50:25.906Z,52.56
2018-12-09T17:52:56.253Z,52.94
2018-12-09T17:55:27.558Z,52.74
2018-12-09T17:57:58.203Z,53.63
2018-12-09T18:00:28.764Z,55.61
2018-12-09T18:02:59.028Z,55.56
2018-12-09T18:05:29.725Z,54.48
2018-12-09T18:08:00.119Z,53.82
2018-12-09T18:10:30.888Z,54.13
2018-12-09T18:13:01.508Z,55.86
2018-12-09T18:15:32.597Z,55.44
2018-12-09T18:18:03.443Z,56.29
2018-12-09T18:20:33.815Z,55.33
2018-12-09T18:23:04.359Z,57.19
2018-12-09T18:25:34.964Z,55.55
2018-12-09T18:28:05.289Z,56.82
2018-12-09T18:30:35.858Z,56.30
2018-12-09T18:33:06.788Z,55.51
2018-12-09T18:35:37.259Z,54.74
2018-12-09T18:38:07.496Z,54.71
2018-12-09T18:40:37.803Z,54.33
2018-12-09T18:43:08.232Z,55.12
2018-12-09T18:45:39.930Z,54.53
2018-12-09T18:48:10.374Z,54.39
2018-12-09T18:50:40.788Z,54.55
2018-12-09T18:53:11.439Z,54.35
2018-12-09T18:55:42.119Z,54.34
2018-12-09T18:58:12.976Z,55.00
2018-12-09T19:00:43.295Z,54.20
2018-12-09T19:03:13.944Z,55.43
2018-12-09T19:05:44.897Z,54.94
2018-12-09T19:08:15.530Z,54.35
2018-12-09T19:10:45.738Z,54.92
2018-12-09T19:13:16.507Z,55.63
2018-12-09T19:15:47.110Z,56.08
2018-12-09T19:18:18.063Z,56.44
2018-12-09T19:20:48.472Z,55.05
2018-12-09T19:23:19.096Z,55.72
2018-12-09T19:25:49.686Z,54.82
2018-12-09T19:28:20.282Z,55.10
2018-12-09T19:30:50.759Z,55.55
2018-12-09T19:33:21.593Z,55.70
2018-12-09T19:38:17.895Z,54.73
2018-12-09T19:40:48.170Z,55.01
2018-12-09T19:43:18.697Z,55.26
2018-12-09T19:45:49.340Z,57.78
2018-12-09T19:48:19.964Z,56.98
2018-12-09T19:50:50.608Z,56.39
2018-12-09T19:53:21.422Z,56.71
2018-12-09T19:55:52.249Z,56.48
2018-12-09T19:58:22.925Z,57.46
2018-12-09T20:00:53.595Z,59.11
2018-12-09T20:03:24.143Z,58.17
2018-12-09T20:05:55.408Z,56.94
2018-12-09T20:08:25.942Z,58.41
2018-12-09T20:10:56.674Z,57.74
2018-12-09T20:13:27.268Z,59.12
2018-12-09T20:15:58.007Z,59.26
2018-12-09T20:18:28.721Z,58.41
2018-12-09T20:20:59.276Z,58.71
2018-12-09T20:23:29.827Z,58.29
2018-12-09T20:26:01.182Z,58.26
2018-12-09T20:28:31.564Z,58.69
2018-12-09T20:31:01.937Z,60.05
2018-12-09T20:33:32.342Z,58.99
2018-12-09T20:36:03.065Z,58.26
2018-12-09T20:38:33.735Z,58.72
2018-12-09T20:41:04.115Z,57.74
2018-12-09T20:43:34.778Z,58.81
2018-12-09T20:46:06.023Z,59.30
2018-12-09T20:48:36.549Z,59.51
2018-12-09T20:51:07.148Z,57.75
2018-12-09T20:53:37.778Z,57.44
2018-12-09T20:56:09.551Z,59.78
2018-12-09T20:58:40.095Z,58.99
2018-12-09T21:01:10.629Z,57.95
2018-12-09T21:03:41.078Z,56.99
2018-12-09T21:06:12.013Z,57.98
2018-12-09T21:08:42.507Z,59.23
2018-12-09T21:11:13.146Z,58.34
2018-12-09T21:13:43.720Z,57.41
2018-12-09T21:16:14.329Z,57.54
2018-12-09T21:18:45.096Z,57.57
2018-12-09T21:21:15.543Z,57.44
2018-12-09T21:23:46.068Z,58.50
2018-12-09T21:26:17.569Z,58.64
2018-12-09T21:28:47.934Z,57.79
2018-12-09T21:31:17.967Z,58.78
2018-12-09T21:33:48.620Z,59.63
2018-12-09T21:36:19.153Z,60.66
2018-12-09T21:38:49.776Z,58.77
2018-12-09T21:41:20.416Z,60.42
2018-12-09T21:43:50.980Z,58.93
2018-12-09T21:46:22.617Z,57.21
2018-12-09T21:48:53.227Z,57.61
2018-12-09T21:51:24.140Z,57.70
2018-12-09T21:53:54.775Z,56.64
2018-12-09T21:56:26.647Z,56.49
2018-12-09T21:58:57.106Z,57.32
2018-12-09T22:01:27.696Z,58.22
2018-12-09T22:03:58.163Z,56.93
2018-12-09T22:06:29.176Z,58.35
2018-12-09T22:08:59.996Z,56.93
2018-12-09T22:11:30.397Z,58.75
2018-12-09T22:14:00.876Z,60.52
2018-12-09T22:16:32.427Z,59.09
2018-12-09T22:19:03.313Z,58.40
2018-12-09T22:21:33.971Z,58.64
2018-12-09T22:24:04.403Z,59.53
2018-12-09T22:26:35.514Z,58.56
2018-12-09T22:29:06.048Z,59.04
2018-12-09T22:31:36.683Z,58.30
2018-12-09T22:34:07.170Z,59.33
2018-12-09T22:36:38.026Z,61.10
2018-12-09T22:39:08.887Z,58.86
2018-12-09T22:41:39.731Z,59.12
2018-12-09T22:44:10.288Z,61.61
2018-12-09T22:46:42.197Z,61.65
2018-12-09T22:49:12.793Z,59.37
2018-12-09T22:51:43.519Z,57.88
2018-12-09T22:54:14.039Z,56.50
2018-12-09T22:56:44.906Z,58.89
2018-12-09T22:59:15.193Z,60.65
2018-12-09T23:01:50.547Z,63.33
2018-12-09T23:04:21.053Z,64.79
2018-12-09T23:06:54.025Z,63.99
2018-12-09T23:09:24.971Z,63.55
2018-12-09T23:11:55.667Z,63.50
2018-12-09T23:14:26.245Z,60.42
2018-12-09T23:16:58.092Z,58.50
2018-12-09T23:19:28.923Z,58.24
2018-12-09T23:21:59.680Z,60.72
2018-12-09T23:24:30.135Z,60.28
2018-12-09T23:27:01.640Z,60.18
2018-12-09T23:29:32.525Z,59.06
2018-12-09T23:32:02.834Z,60.26
2018-12-09T23:34:33.507Z,61.04
2018-12-09T23:37:03.981Z,59.39
2018-12-09T23:39:34.532Z,60.37
2018-12-09T23:42:05.189Z,60.61
2018-12-09T23:44:35.719Z,62.80
2018-12-09T23:47:07.010Z,61.29
2018-12-09T23:49:37.637Z,59.63
2018-12-09T23:52:08.083Z,61.83
2018-12-09T23:54:38.758Z,63.84
2018-12-09T23:57:09.840Z,59.94
2018-12-09T23:59:40.531Z,61.72
